ICAO code: LHPR | IATA code: QGY | AFTN: LHPRZPZX | english | deutsch
Időjárás: 2019-01-17 00:00 (UTC) | Hőmérséklet: 3.3 °C | QNH: 1010.3 hPa | Szél: 1.1 m/s | Részletek
Live ATC LHPR
Webkameránk élőképe

Győr-Pér Repülőtér időjárás adatok

Metar:
METAR LHPR 162245Z AUTO 12003KT 080V170 CAVOK 02/M01 Q1011 RMK BL


Taf:
TAF LHPR 162000Z NIL


Jelenidő:
Nem volt érdemleges időjárási jelenség az elmúlt órában
Időbélyeg: 2019-01-17 00:00:00 UTC
Hőmérséklet:
3.3 °C
 
Harmatpont:
-1.1 °C
 
Rel. páratartalom:
73%
 
QNH:
1010.3 hPa
 
Szélsebesség:
1.1 m/s
Max:
4.4 m/s
Szélirány:
190°
 
Csapadék (1 óra):
0.0 mm
 
Látótávolság:
20000 m
 
RVR:
>1500 m RWY30
 
1. felhőréteg mennyisége:
0 octa
 
1. felhőréteg alapja:
m


Az adatokat szolgáltatja
az Országos Meteorológiai Szolgálat
Győr-Pér Repülőtér | H 9099 Pér, Repülőtér | Tel: +36/96/559-200 | Fax: +36/96/559-202

ICAO code: LHPR | IATA code: QGY | AFTN: LHPRZPZX


weboldal tervezés: IRQ